Time;durP1;ratioP1;P1;durP2;ratioP2;P2;SDS_P1;SDS_P2;PMS_P1;PMS_P2;Temp;Humidity;BMP_temperature;BMP_pressure;BME280_temperature;BME280_humidity;BME280_pressure;Samples;Min_cycle;Max_cycle;Signal;HPM_P1;HPM_P2
2022/04/16 00:01:05;;;;;;;3.30;2.63;;;;;;;10.29;100.00;97088.09;5029172;28;106740;-65
2022/04/16 00:03:33;;;;;;;3.37;3.07;;;;;;;10.29;100.00;97085.44;5031567;27;101702;-65
2022/04/16 00:06:03;;;;;;;3.27;3.03;;;;;;;10.26;100.00;97083.22;5032674;28;105916;-65
2022/04/16 00:08:30;;;;;;;3.30;3.00;;;;;;;10.23;100.00;97090.84;5029952;28;101893;-65
2022/04/16 00:10:57;;;;;;;3.17;2.97;;;;;;;10.23;100.00;97075.72;5029769;28;105195;-65
2022/04/16 00:13:25;;;;;;;2.83;2.63;;;;;;;10.25;100.00;97083.47;5029272;28;103803;-65
2022/04/16 00:15:52;;;;;;;3.30;3.00;;;;;;;10.24;100.00;97079.22;5029339;28;101991;-65
2022/04/16 00:18:21;;;;;;;3.27;2.90;;;;;;;10.20;100.00;97080.72;5029676;28;105095;-65
2022/04/16 00:20:51;;;;;;;4.10;3.80;;;;;;;10.19;100.00;97076.44;5029302;28;105373;-65
2022/04/16 00:23:20;;;;;;;3.73;3.43;;;;;;;10.16;100.00;97071.56;5031362;28;102145;-65
2022/04/16 00:25:47;;;;;;;4.77;4.10;;;;;;;10.16;100.00;97068.91;5029567;28;105521;-65
2022/04/16 00:28:14;;;;;;;3.63;3.33;;;;;;;10.08;100.00;97067.41;5032270;28;105592;-65
2022/04/16 00:30:41;;;;;;;4.37;4.03;;;;;;;10.06;100.00;97076.66;5029374;28;105601;-65
2022/04/16 00:33:10;;;;;;;4.20;3.90;;;;;;;10.05;100.00;97067.88;5028798;28;103820;-65
2022/04/16 00:35:39;;;;;;;4.40;3.77;;;;;;;10.01;100.00;97071.16;5029350;28;102013;-65
2022/04/16 00:38:06;;;;;;;4.80;4.20;;;;;;;9.92;100.00;97069.91;5029478;28;104965;-65
2022/04/16 00:40:35;;;;;;;5.30;4.73;;;;;;;9.84;100.00;97073.72;5028804;28;105653;-65
2022/04/16 00:43:02;;;;;;;4.57;4.17;;;;;;;9.79;100.00;97067.44;5029077;28;102287;-65
2022/04/16 00:45:31;;;;;;;5.17;4.37;;;;;;;9.75;100.00;97068.97;5029414;28;106419;-65
2022/04/16 00:47:59;;;;;;;4.20;3.83;;;;;;;9.75;100.00;97068.97;5028539;28;105832;-65
2022/04/16 00:50:26;;;;;;;6.00;4.27;;;;;;;9.77;100.00;97080.16;5031833;27;101896;-65
2022/04/16 00:52:53;;;;;;;4.80;4.40;;;;;;;9.79;100.00;97075.41;5030219;28;102637;-65
2022/04/16 00:55:20;;;;;;;5.83;4.63;;;;;;;9.73;100.00;97071.84;5028619;28;101886;-65
2022/04/16 00:57:49;;;;;;;5.20;4.80;;;;;;;9.73;100.00;97071.03;5029256;28;105128;-65
2022/04/16 01:00:16;;;;;;;4.60;4.07;;;;;;;9.69;100.00;97070.66;5028372;28;103825;-65
2022/04/16 01:02:46;;;;;;;4.57;4.17;;;;;;;9.66;100.00;97076.44;5029233;28;102451;-65
2022/04/16 01:05:13;;;;;;;4.50;4.10;;;;;;;9.63;100.00;97068.09;5029079;28;104934;-66
2022/04/16 01:07:53;;;;;;;4.30;3.90;;;;;;;9.66;100.00;97067.66;5028511;28;104985;-65
2022/04/16 01:10:21;;;;;;;4.80;4.33;;;;;;;9.67;100.00;97066.63;5030454;27;101648;-65
2022/04/16 01:12:49;;;;;;;4.10;3.80;;;;;;;9.64;100.00;97064.41;5031761;28;105617;-65
2022/04/16 01:15:17;;;;;;;3.73;3.43;;;;;;;9.61;100.00;97064.88;5028662;28;102084;-65
2022/04/16 01:17:44;;;;;;;4.10;3.80;;;;;;;9.68;100.00;97068.25;5030196;28;102465;-65
2022/04/16 01:20:11;;;;;;;4.53;3.40;;;;;;;9.70;100.00;97074.16;5028244;28;105248;-65
2022/04/16 01:22:40;;;;;;;3.93;3.60;;;;;;;9.72;100.00;97075.53;5029027;28;102522;-65
2022/04/16 01:25:09;;;;;;;3.60;3.40;;;;;;;9.59;100.00;97074.94;5028836;28;105080;-65
2022/04/16 01:27:36;;;;;;;4.03;3.73;;;;;;;9.59;100.00;97069.63;5028178;28;105367;-65
2022/04/16 01:30:05;;;;;;;4.37;3.97;;;;;;;9.60;100.00;97061.41;5028545;28;102428;-65
2022/04/16 01:32:33;;;;;;;4.07;3.77;;;;;;;9.68;100.00;97068.25;5028808;28;104763;-65
2022/04/16 01:35:00;;;;;;;3.93;3.63;;;;;;;9.67;100.00;97070.09;5031719;28;104297;-65
2022/04/16 01:37:31;;;;;;;3.93;3.63;;;;;;;9.69;100.00;97073.31;5028554;28;105596;-65
2022/04/16 01:40:01;;;;;;;4.17;3.77;;;;;;;9.61;100.00;97080.81;5029262;27;102593;-65
2022/04/16 01:42:29;;;;;;;4.20;3.80;;;;;;;9.56;100.00;97075.38;5028482;28;101884;-65
2022/04/16 01:44:57;;;;;;;3.90;3.60;;;;;;;9.51;100.00;97073.41;5029982;28;102610;-65
2022/04/16 01:47:24;;;;;;;5.00;4.50;;;;;;;9.43;100.00;97075.56;5029225;28;101743;-65
2022/04/16 01:49:51;;;;;;;4.97;4.57;;;;;;;9.34;100.00;97077.75;5028164;28;101929;-65
2022/04/16 01:52:19;;;;;;;5.23;4.73;;;;;;;9.28;100.00;97078.63;5028688;28;104740;-65
2022/04/16 01:54:45;;;;;;;5.93;4.67;;;;;;;9.28;100.00;97083.94;5029237;27;103017;-65
2022/04/16 01:57:18;;;;;;;4.53;4.13;;;;;;;9.22;100.00;97084.03;5031565;27;101896;-65
2022/04/16 01:59:45;;;;;;;5.80;5.20;;;;;;;9.25;100.00;97088.88;5026214;28;105373;-65
2022/04/16 02:02:12;;;;;;;5.03;4.60;;;;;;;9.16;100.00;97088.38;5026577;27;101929;-65
2022/04/16 02:04:39;;;;;;;5.17;4.67;;;;;;;9.22;100.00;97089.34;5030846;28;105453;-65
2022/04/16 02:07:07;;;;;;;5.10;4.60;;;;;;;9.23;100.00;97090.97;5030514;28;104311;-65
2022/04/16 02:09:34;;;;;;;4.53;4.13;;;;;;;9.11;100.00;97090.09;5032406;28;101806;-65
2022/04/16 02:12:01;;;;;;;5.40;4.90;;;;;;;9.13;100.00;97091.50;5030660;28;104090;-65
2022/04/16 02:14:30;;;;;;;5.07;4.67;;;;;;;9.23;100.00;97090.97;5030420;28;105397;-65
2022/04/16 02:16:58;;;;;;;5.07;4.57;;;;;;;9.28;100.00;97083.13;5034222;28;101887;-65
2022/04/16 02:19:25;;;;;;;4.90;4.50;;;;;;;9.33;100.00;97077.97;5031396;28;103190;-65
2022/04/16 02:21:52;;;;;;;4.80;4.37;;;;;;;9.28;100.00;97075.19;5030556;28;102033;-65
2022/04/16 02:24:19;;;;;;;4.63;4.23;;;;;;;9.22;100.00;97081.38;5030557;28;105519;-65
2022/04/16 02:26:46;;;;;;;4.80;4.40;;;;;;;9.03;100.00;97080.59;5029994;28;106376;-66
2022/04/16 02:29:14;;;;;;;4.93;4.53;;;;;;;9.13;100.00;97080.88;5030446;28;102353;-65
2022/04/16 02:31:44;;;;;;;6.17;5.57;;;;;;;8.97;100.00;97085.97;5030701;28;104009;-65
2022/04/16 02:34:12;;;;;;;5.13;4.70;;;;;;;8.76;100.00;97081.97;5029714;28;104836;-65
2022/04/16 02:36:40;;;;;;;5.47;4.97;;;;;;;8.71;100.00;97084.47;5030301;28;101973;-65
2022/04/16 02:39:08;;;;;;;6.03;5.43;;;;;;;8.71;100.00;97091.59;5034567;27;102793;-65
2022/04/16 02:41:35;;;;;;;6.00;5.37;;;;;;;8.68;100.00;97092.84;5030256;28;102042;-65
2022/04/16 02:44:02;;;;;;;5.60;4.77;;;;;;;8.60;100.00;97090.50;5030123;28;104850;-65
2022/04/16 02:49:15;;;;;;;5.33;4.83;;;;;;;8.53;100.00;97091.59;5030264;28;101790;-65
2022/04/16 02:51:43;;;;;;;6.53;5.13;;;;;;;8.53;100.00;97089.78;5029993;28;105199;-65
2022/04/16 02:54:09;;;;;;;5.00;4.60;;;;;;;8.47;100.00;97087.19;5029228;28;106097;-65
2022/04/16 02:56:37;;;;;;;5.10;4.63;;;;;;;8.48;100.00;97081.66;4988391;28;1190649;-65
2022/04/16 02:59:04;;;;;;;5.03;4.63;;;;;;;8.28;100.00;97091.66;5031127;28;105935;-65
2022/04/16 03:01:32;;;;;;;5.17;4.77;;;;;;;8.27;100.00;97087.38;5033506;28;104988;-65
2022/04/16 03:03:59;;;;;;;5.10;4.60;;;;;;;8.18;100.00;97090.50;5031103;28;105809;-65
2022/04/16 03:06:28;;;;;;;5.00;4.50;;;;;;;8.19;100.00;97090.28;5031951;28;102478;-65
2022/04/16 03:08:55;;;;;;;5.43;4.93;;;;;;;8.17;100.00;97092.34;5030745;28;102306;-65
2022/04/16 03:11:22;;;;;;;5.50;5.00;;;;;;;8.11;100.00;97090.56;5030793;28;105023;-65
2022/04/16 03:13:50;;;;;;;5.50;4.97;;;;;;;8.04;100.00;97091.66;5029952;27;105290;-65
2022/04/16 03:19:01;;;;;;;4.90;4.50;;;;;;;8.03;100.00;97093.50;5030635;28;105653;-65
2022/04/16 03:21:31;;;;;;;5.03;4.53;;;;;;;8.10;100.00;97088.94;5030109;28;105257;-65
2022/04/16 03:23:58;;;;;;;5.40;4.90;;;;;;;8.11;100.00;97097.69;5034247;28;102556;-65
2022/04/16 03:26:25;;;;;;;5.00;4.50;;;;;;;8.07;100.00;97099.97;5030073;28;105117;-65
2022/04/16 03:28:52;;;;;;;5.23;4.73;;;;;;;8.17;100.00;97099.47;5030292;28;101889;-65
2022/04/16 03:31:20;;;;;;;5.30;4.90;;;;;;;8.19;100.00;97098.22;5030759;28;103544;-65
2022/04/16 03:33:47;;;;;;;5.10;4.70;;;;;;;8.26;100.00;97088.41;5029913;28;105053;-65
2022/04/16 03:36:14;;;;;;;5.47;5.00;;;;;;;8.37;100.00;97093.00;5030159;28;101895;-65
2022/04/16 03:38:43;;;;;;;5.43;4.93;;;;;;;8.40;100.00;97095.19;5030520;28;103586;-65
2022/04/16 03:41:11;;;;;;;5.27;4.77;;;;;;;8.28;100.00;97096.16;5029704;28;105194;-65
2022/04/16 03:43:39;;;;;;;5.77;5.27;;;;;;;7.98;100.00;97089.88;5030078;28;102186;-65
2022/04/16 03:46:05;;;;;;;5.47;4.90;;;;;;;8.03;100.00;97095.31;5033170;28;105119;-65
2022/04/16 03:48:33;;;;;;;5.53;5.03;;;;;;;7.94;100.00;97091.31;5030156;28;102027;-65
2022/04/16 03:50:59;;;;;;;5.80;5.13;;;;;;;7.98;100.00;97087.22;5030023;28;105561;-65
2022/04/16 03:53:26;;;;;;;5.73;5.07;;;;;;;7.91;100.00;97089.13;5029702;28;105286;-65
2022/04/16 04:01:39;;;;;;;5.10;4.70;;;;;;;7.81;100.00;97094.09;4971253;28;104579;-65
2022/04/16 04:04:05;;;;;;;6.00;5.40;;;;;;;7.79;100.00;97096.16;4972107;28;101847;-65
2022/04/16 04:06:33;;;;;;;5.73;5.20;;;;;;;7.68;100.00;97092.34;4994918;28;105530;-65
2022/04/16 04:09:00;;;;;;;5.90;5.30;;;;;;;7.73;100.00;97102.28;5032632;27;102303;-65
2022/04/16 04:11:34;;;;;;;5.10;4.70;;;;;;;7.61;100.00;97096.06;5029790;28;104827;-65
2022/04/16 04:14:03;;;;;;;5.73;5.23;;;;;;;7.49;100.00;97106.53;5029299;28;105309;-65
2022/04/16 04:16:30;;;;;;;6.00;5.40;;;;;;;7.54;100.00;97113.81;5029484;28;102052;-65
2022/04/16 04:18:57;;;;;;;6.47;5.20;;;;;;;7.48;100.00;97110.19;5029745;28;105292;-65
2022/04/16 04:21:25;;;;;;;9.57;5.87;;;;;;;7.44;100.00;97113.47;5030269;28;102806;-65
2022/04/16 04:23:52;;;;;;;6.03;5.43;;;;;;;7.49;100.00;97116.31;5029799;28;101962;-65
2022/04/16 04:26:19;;;;;;;5.70;5.10;;;;;;;7.47;100.00;97118.34;5028599;27;105344;-65
2022/04/16 04:28:48;;;;;;;6.30;5.70;;;;;;;7.40;100.00;97123.69;5028484;27;102525;-65
2022/04/16 04:31:16;;;;;;;5.90;5.30;;;;;;;7.47;100.00;97124.44;5029255;28;103788;-65
2022/04/16 04:33:43;;;;;;;6.27;5.67;;;;;;;7.39;100.00;97132.66;5029097;28;105302;-65
2022/04/16 04:36:09;;;;;;;6.10;5.50;;;;;;;7.50;100.00;97136.44;5029396;28;102464;-65
2022/04/16 04:38:36;;;;;;;6.10;5.50;;;;;;;7.48;100.00;97131.34;5029414;28;105240;-65
2022/04/16 04:41:07;;;;;;;6.53;5.60;;;;;;;7.41;100.00;97137.75;5028696;28;105973;-65
2022/04/16 04:43:34;;;;;;;6.27;5.67;;;;;;;7.36;100.00;97137.56;5029382;28;102022;-65
2022/04/16 04:46:02;;;;;;;7.07;6.37;;;;;;;7.38;100.00;97144.25;5029313;28;104034;-65
2022/04/16 04:48:29;;;;;;;6.70;6.10;;;;;;;7.36;100.00;97148.13;5028318;28;105251;-65
2022/04/16 04:50:56;;;;;;;6.77;6.03;;;;;;;7.39;100.00;97145.88;5032680;28;101921;-65
2022/04/16 04:53:23;;;;;;;6.70;6.00;;;;;;;7.43;100.00;97147.09;5028596;28;104709;-65
2022/04/16 04:55:49;;;;;;;6.20;5.40;;;;;;;7.39;100.00;97150.34;5030040;28;102544;-65
2022/04/16 04:58:17;;;;;;;6.60;6.00;;;;;;;7.38;100.00;97146.09;5029238;28;104823;-65
2022/04/16 05:00:44;;;;;;;7.03;6.10;;;;;;;7.51;100.00;97153.94;5028461;28;106836;-66
2022/04/16 05:03:13;;;;;;;6.80;6.20;;;;;;;7.56;100.00;97147.00;5028968;28;101750;-65
2022/04/16 05:05:40;;;;;;;6.67;5.73;;;;;;;7.51;100.00;97151.28;5029016;28;105154;-65
2022/04/16 05:08:07;;;;;;;7.83;6.73;;;;;;;7.54;100.00;97153.53;5028260;28;105567;-65
2022/04/16 05:10:34;;;;;;;6.27;5.67;;;;;;;7.58;100.00;97152.88;5028964;28;101927;-65
2022/04/16 05:13:03;;;;;;;6.83;6.13;;;;;;;7.60;100.00;97152.66;5065806;27;104060;-65
2022/04/16 05:15:30;;;;;;;6.57;5.60;;;;;;;7.61;100.00;97151.63;5028689;28;101974;-65
2022/04/16 05:17:57;;;;;;;6.13;5.53;;;;;;;7.61;100.00;97155.13;5028507;28;104970;-65
2022/04/16 05:20:26;;;;;;;6.43;5.83;;;;;;;7.56;100.00;97149.66;5028047;28;104215;-65
2022/04/16 05:22:53;;;;;;;7.33;6.33;;;;;;;7.62;100.00;97153.25;5028794;28;102016;-65
2022/04/16 05:25:20;;;;;;;6.23;5.63;;;;;;;7.68;100.00;97160.38;5028492;28;105088;-65
2022/04/16 05:27:48;;;;;;;6.83;5.97;;;;;;;7.72;100.00;97162.38;5028067;28;105683;-65
2022/04/16 05:30:22;;;;;;;6.50;5.80;;;;;;;7.73;100.00;97160.53;5028670;28;101911;-65
2022/04/16 05:32:51;;;;;;;7.40;6.60;;;;;;;7.68;100.00;97168.31;5028552;28;105289;-65
2022/04/16 05:35:18;;;;;;;7.13;6.43;;;;;;;7.56;100.00;97165.53;5031116;28;105506;-65
2022/04/16 05:37:47;;;;;;;7.47;6.60;;;;;;;7.61;100.00;97170.16;5028529;28;105156;-65
2022/04/16 05:40:14;;;;;;;7.40;6.70;;;;;;;7.59;100.00;97172.22;5027826;28;105217;-65
2022/04/16 05:42:41;;;;;;;6.80;6.10;;;;;;;7.62;100.00;97169.97;5028573;28;101761;-65
2022/04/16 05:45:10;;;;;;;7.17;6.47;;;;;;;7.63;100.00;97170.78;5028230;28;104891;-65
2022/04/16 05:47:37;;;;;;;7.13;6.43;;;;;;;7.61;100.00;97172.81;5027712;28;105432;-65
2022/04/16 05:50:06;;;;;;;7.20;6.43;;;;;;;7.57;100.00;97171.59;5028233;28;101969;-65
2022/04/16 05:52:35;;;;;;;6.70;6.00;;;;;;;7.62;100.00;97174.44;5028474;28;105453;-65
2022/04/16 05:55:04;;;;;;;7.37;6.57;;;;;;;7.52;100.00;97174.09;5028789;28;102715;-65
2022/04/16 05:57:32;;;;;;;6.80;6.20;;;;;;;7.66;100.00;97178.28;5033190;27;101699;-65
2022/04/16 05:59:59;;;;;;;8.60;6.00;;;;;;;7.72;100.00;97178.25;5029062;28;102503;-65
2022/04/16 06:02:26;;;;;;;7.27;6.23;;;;;;;7.80;100.00;97180.63;5028093;28;101848;-65
2022/04/16 06:04:53;;;;;;;6.93;6.30;;;;;;;7.77;100.00;97181.09;5029260;28;102851;-65
2022/04/16 06:07:20;;;;;;;7.90;6.73;;;;;;;7.74;100.00;97183.34;5028977;28;102901;-65
2022/04/16 06:09:46;;;;;;;7.17;6.47;;;;;;;7.83;100.00;97179.41;5028297;28;102534;-65
2022/04/16 06:12:15;;;;;;;6.83;6.13;;;;;;;7.91;100.00;97187.09;5027882;28;104318;-65
2022/04/16 06:14:43;;;;;;;7.23;6.53;;;;;;;8.07;100.00;97176.78;5027583;28;105849;-65
2022/04/16 06:17:10;;;;;;;7.03;6.27;;;;;;;8.18;100.00;97183.25;5031494;28;101732;-65
2022/04/16 06:19:37;;;;;;;6.83;6.13;;;;;;;8.15;100.00;97181.00;5028437;28;102520;-65
2022/04/16 06:22:05;;;;;;;6.77;6.17;;;;;;;8.26;100.00;97183.81;5027988;28;101724;-65
2022/04/16 06:24:33;;;;;;;7.07;6.37;;;;;;;8.32;100.00;97176.81;5028218;28;105449;-65
2022/04/16 06:27:00;;;;;;;7.00;6.30;;;;;;;8.40;100.00;97179.22;5027271;28;103659;-65
2022/04/16 06:29:29;;;;;;;7.33;6.17;;;;;;;8.42;100.00;97177.97;5027957;28;101899;-65
2022/04/16 06:31:56;;;;;;;6.57;5.90;;;;;;;8.35;100.00;97173.75;5029025;28;102852;-65
2022/04/16 06:34:23;;;;;;;6.33;5.73;;;;;;;8.33;100.00;97181.09;5027295;28;105313;-65
2022/04/16 06:36:50;;;;;;;6.83;6.13;;;;;;;8.42;100.00;97177.13;5027635;28;101860;-65
2022/04/16 06:39:17;;;;;;;7.00;6.30;;;;;;;8.67;100.00;97180.59;5032032;28;102639;-65
2022/04/16 06:41:45;;;;;;;6.53;5.93;;;;;;;8.83;100.00;97182.66;5029231;28;101662;-65
2022/04/16 06:44:12;;;;;;;7.20;6.50;;;;;;;8.59;100.00;97178.19;5027722;28;105539;-65
2022/04/16 06:46:41;;;;;;;6.70;5.97;;;;;;;8.54;100.00;97172.75;5028393;28;102710;-65
2022/04/16 06:49:07;;;;;;;6.90;6.30;;;;;;;8.63;100.00;97179.41;5028576;27;101908;-65
2022/04/16 06:51:34;;;;;;;7.00;6.30;;;;;;;8.72;100.00;97178.09;5031016;28;104954;-65
2022/04/16 06:54:01;;;;;;;6.77;6.07;;;;;;;8.84;100.00;97176.34;5030715;28;105671;-65
2022/04/16 06:56:29;;;;;;;7.37;6.07;;;;;;;9.05;100.00;97175.91;5031748;28;101892;-65
2022/04/16 06:58:56;;;;;;;7.33;6.60;;;;;;;8.85;100.00;97167.34;5030930;28;103519;-65
2022/04/16 07:01:22;;;;;;;7.17;6.07;;;;;;;8.99;100.00;97176.78;5035112;27;102610;-65
2022/04/16 07:03:51;;;;;;;7.20;6.50;;;;;;;9.12;100.00;97171.31;5032814;27;102933;-65
2022/04/16 07:06:18;;;;;;;6.80;6.17;;;;;;;9.19;100.00;97180.00;5030274;28;105306;-65
2022/04/16 07:08:45;;;;;;;7.03;6.33;;;;;;;9.34;100.00;97183.09;5030760;28;101958;-65
2022/04/16 07:11:12;;;;;;;7.00;6.30;;;;;;;9.12;100.00;97185.41;5030949;28;104889;-65
2022/04/16 07:13:39;;;;;;;6.43;5.83;;;;;;;9.11;100.00;97181.09;5030159;28;104998;-65
2022/04/16 07:16:06;;;;;;;6.57;5.97;;;;;;;9.42;100.00;97191.56;5030645;28;101864;-65
2022/04/16 07:18:34;;;;;;;12.43;6.90;;;;;;;9.50;100.00;97193.09;5030445;28;105577;-65
2022/04/16 07:21:03;;;;;;;6.63;6.03;;;;;;;9.36;100.00;97192.47;5029964;28;105011;-65
2022/04/16 07:23:30;;;;;;;6.73;6.13;;;;;;;9.47;100.00;97201.50;5034337;28;102492;-65
2022/04/16 07:25:58;;;;;;;6.77;6.13;;;;;;;9.36;100.00;97204.91;5064129;27;105618;-65
2022/04/16 07:28:24;;;;;;;6.67;6.07;;;;;;;9.35;100.00;97205.94;5030632;28;102093;-65
2022/04/16 07:30:53;;;;;;;7.30;6.60;;;;;;;9.47;100.00;97212.13;5030273;28;106581;-65
2022/04/16 07:33:21;;;;;;;9.20;7.03;;;;;;;9.37;100.00;97207.34;5029955;28;105433;-65
2022/04/16 07:35:48;;;;;;;8.87;6.60;;;;;;;9.46;100.00;97207.84;5031667;27;101836;-65
2022/04/16 07:38:16;;;;;;;6.67;6.00;;;;;;;9.68;100.00;97211.66;5030426;28;106479;-65
2022/04/16 07:40:43;;;;;;;6.70;6.10;;;;;;;9.94;100.00;97203.31;5029991;28;105249;-65
2022/04/16 07:43:10;;;;;;;6.70;6.10;;;;;;;10.13;100.00;97204.91;5030256;28;102722;-65
2022/04/16 07:45:37;;;;;;;6.40;5.80;;;;;;;10.15;100.00;97210.81;5033046;28;104730;-65
2022/04/16 07:48:05;;;;;;;7.30;6.67;;;;;;;9.89;100.00;97211.16;5030249;28;102138;-65
2022/04/16 07:50:33;;;;;;;6.83;6.13;;;;;;;9.64;100.00;97211.28;5030199;28;105192;-65
2022/04/16 07:52:59;;;;;;;7.00;6.30;;;;;;;9.62;100.00;97212.56;5029348;28;105707;-65
2022/04/16 07:55:31;;;;;;;7.43;6.73;;;;;;;9.51;100.00;97215.97;5029552;28;101846;-65
2022/04/16 07:57:58;;;;;;;8.63;6.63;;;;;;;9.60;100.00;97214.63;5030067;28;102534;-65
2022/04/16 08:00:25;;;;;;;7.27;6.67;;;;;;;9.73;100.00;97215.28;5027835;28;105271;-65
2022/04/16 08:02:52;;;;;;;6.90;6.20;;;;;;;10.05;100.00;97216.69;5030086;28;101772;-65
2022/04/16 08:05:19;;;;;;;6.90;6.20;;;;;;;10.40;100.00;97225.53;5030136;28;103585;-65
2022/04/16 08:07:46;;;;;;;6.60;6.00;;;;;;;10.97;100.00;97230.09;5032660;28;104227;-65
2022/04/16 08:10:13;;;;;;;7.07;6.40;;;;;;;11.43;100.00;97223.88;5029851;28;105163;-65
2022/04/16 08:12:43;;;;;;;6.53;5.93;;;;;;;10.48;100.00;97229.72;5029415;28;105792;-65
2022/04/16 08:15:11;;;;;;;7.03;6.33;;;;;;;10.72;100.00;97226.84;5029794;28;101875;-65
2022/04/16 08:17:39;;;;;;;6.17;5.67;;;;;;;10.91;100.00;97228.34;5029518;28;105114;-65
2022/04/16 08:20:07;;;;;;;6.90;6.17;;;;;;;10.79;100.00;97237.41;5029211;28;104349;-65
2022/04/16 08:22:35;;;;;;;6.87;6.27;;;;;;;10.77;100.00;97239.47;5029700;28;102036;-65
2022/04/16 08:27:50;;;;;;;6.93;6.33;;;;;;;10.48;100.00;97238.50;5032206;28;104502;-65
2022/04/16 08:30:18;;;;;;;6.40;5.80;;;;;;;10.50;100.00;97235.63;5029589;28;105563;-65
2022/04/16 08:32:46;;;;;;;6.90;6.20;;;;;;;9.90;100.00;97232.19;5028967;28;105355;-65
2022/04/16 08:35:15;;;;;;;7.07;6.47;;;;;;;10.44;100.00;97232.03;5029289;28;101988;-65
2022/04/16 08:37:43;;;;;;;6.87;6.03;;;;;;;10.78;100.00;97225.09;5030689;28;102467;-65
2022/04/16 08:40:12;;;;;;;6.83;6.00;;;;;;;10.66;100.00;97230.44;5030296;28;103043;-65
2022/04/16 08:42:41;;;;;;;6.43;5.83;;;;;;;10.21;100.00;97233.81;5029205;28;102422;-65
2022/04/16 08:45:11;;;;;;;6.27;5.70;;;;;;;10.14;100.00;97230.47;5029079;28;105565;-65
2022/04/16 08:47:40;;;;;;;6.83;6.23;;;;;;;10.35;100.00;97236.06;5030077;28;102690;-65
2022/04/16 08:50:09;;;;;;;6.77;6.17;;;;;;;10.28;100.00;97240.66;5033996;28;101878;-65
2022/04/16 08:52:38;;;;;;;6.77;6.17;;;;;;;10.37;100.00;97243.81;5028693;28;105489;-65
2022/04/16 08:55:09;;;;;;;7.00;6.30;;;;;;;10.56;100.00;97246.16;5030057;28;101939;-65
2022/04/16 08:57:36;;;;;;;7.10;6.40;;;;;;;11.02;100.00;97245.38;5030924;27;101666;-65
2022/04/16 09:00:04;;;;;;;6.70;6.10;;;;;;;11.04;100.00;97240.63;5028295;28;105154;-65
2022/04/16 09:02:32;;;;;;;6.63;6.10;;;;;;;10.77;100.00;97236.81;5028922;28;102083;-65
2022/04/16 09:05:07;;;;;;;6.10;5.50;;;;;;;11.39;100.00;97228.09;5029338;28;105635;-65
2022/04/16 09:07:45;;;;;;;6.80;6.20;;;;;;;11.65;100.00;97238.22;5028539;28;105016;-65
2022/04/16 09:10:13;;;;;;;5.70;5.20;;;;;;;11.50;100.00;97232.59;5030459;28;101780;-65
2022/04/16 09:12:41;;;;;;;6.00;5.50;;;;;;;11.41;100.00;97234.81;5032816;27;102963;-65
2022/04/16 09:15:09;;;;;;;5.50;5.10;;;;;;;11.14;100.00;97236.34;5028904;28;101774;-65
2022/04/16 09:17:38;;;;;;;5.50;5.00;;;;;;;11.03;100.00;97236.34;5028691;28;105099;-65
2022/04/16 09:20:10;;;;;;;5.23;4.83;;;;;;;11.34;100.00;97238.63;5028170;28;105161;-65
2022/04/16 09:22:39;;;;;;;5.57;5.07;;;;;;;11.25;100.00;97237.38;5028551;28;101848;-65
2022/04/16 09:25:14;;;;;;;5.47;5.07;;;;;;;10.79;100.00;97237.41;5028842;28;105594;-65
2022/04/16 09:27:43;;;;;;;5.97;5.47;;;;;;;10.75;100.00;97246.88;5029507;28;103319;-65
2022/04/16 09:30:11;;;;;;;4.80;4.40;;;;;;;10.81;100.00;97243.28;5029796;28;101695;-65
2022/04/16 09:32:46;;;;;;;5.30;4.80;;;;;;;11.06;100.00;97249.19;5030324;27;102147;-65
2022/04/16 09:35:31;;;;;;;4.60;4.20;;;;;;;11.48;100.00;97251.47;5032907;27;102800;-65
2022/04/16 09:37:59;;;;;;;5.07;4.57;;;;;;;11.30;100.00;97256.13;5030326;28;102379;-65
2022/04/16 09:40:27;;;;;;;5.03;4.63;;;;;;;11.13;100.00;97255.22;5029133;28;103267;-65
2022/04/16 09:42:56;;;;;;;4.67;4.27;;;;;;;11.55;100.00;97254.00;5029857;28;102154;-65
2022/04/16 09:45:23;;;;;;;4.83;4.33;;;;;;;11.18;100.00;97260.66;5030025;28;102384;-65
2022/04/16 09:47:52;;;;;;;4.07;3.77;;;;;;;11.33;100.00;97259.13;5029139;28;102009;-65
2022/04/16 09:50:21;;;;;;;3.83;3.53;;;;;;;11.69;100.00;97256.19;5028338;28;101950;-65
2022/04/16 09:52:53;;;;;;;4.17;3.87;;;;;;;11.92;100.00;97252.63;5028534;28;103873;-65
2022/04/16 09:55:24;;;;;;;4.20;3.90;;;;;;;12.03;100.00;97257.91;5028891;27;102623;-65
2022/04/16 09:57:55;;;;;;;3.57;3.27;;;;;;;12.25;100.00;97255.38;5031683;28;102150;-65
2022/04/16 10:00:23;;;;;;;3.37;2.90;;;;;;;12.37;100.00;97254.28;5028813;28;103235;-65
2022/04/16 10:02:53;;;;;;;3.00;2.80;;;;;;;12.47;100.00;97264.31;5028409;28;101835;-65
2022/04/16 10:05:21;;;;;;;3.67;3.37;;;;;;;12.65;100.00;97261.44;5011387;28;106254;-65
2022/04/16 10:07:49;;;;;;;3.80;3.50;;;;;;;12.74;100.00;97260.78;5027567;28;105361;-65
2022/04/16 10:10:25;;;;;;;3.90;3.60;;;;;;;12.62;100.00;97261.91;5028063;28;101927;-65
2022/04/16 10:13:03;;;;;;;4.70;4.17;;;;;;;12.72;100.00;97262.06;5029737;27;102237;-65
2022/04/16 10:15:40;;;;;;;3.90;3.60;;;;;;;13.09;100.00;97260.56;5027468;28;105091;-65
2022/04/16 10:18:11;;;;;;;4.33;3.93;;;;;;;13.20;100.00;97265.00;5028028;28;101808;-65
2022/04/16 10:20:38;;;;;;;3.97;3.67;;;;;;;11.66;100.00;97261.19;5032237;27;102417;-65
2022/04/16 10:23:07;;;;;;;4.00;3.70;;;;;;;12.09;100.00;97262.28;5029379;27;101760;-65
2022/04/16 10:25:35;;;;;;;4.30;3.90;;;;;;;11.94;100.00;97264.66;5032595;28;102308;-65
2022/04/16 10:28:05;;;;;;;4.00;3.70;;;;;;;11.72;100.00;97262.91;5032314;27;102706;-65
2022/04/16 10:30:38;;;;;;;3.60;3.30;;;;;;;11.39;100.00;97270.69;5031601;28;101847;-65
2022/04/16 10:33:18;;;;;;;3.40;3.20;;;;;;;11.81;100.00;97266.78;5033087;28;101725;-65
2022/04/16 10:35:56;;;;;;;3.23;3.03;;;;;;;12.34;100.00;97260.09;5030722;28;104623;-65
2022/04/16 10:38:32;;;;;;;2.90;2.70;;;;;;;12.63;100.00;97263.50;5031420;28;101845;-65
2022/04/16 10:41:00;;;;;;;2.80;2.60;;;;;;;12.63;100.00;97259.00;5034098;28;103548;-65
2022/04/16 10:43:29;;;;;;;3.93;3.63;;;;;;;12.12;100.00;97261.84;5032871;27;101814;-65
2022/04/16 10:45:58;;;;;;;3.50;3.20;;;;;;;12.02;100.00;97266.16;5031098;28;105555;-65
2022/04/16 10:48:29;;;;;;;4.03;3.73;;;;;;;12.05;100.00;97266.47;5030563;28;106016;-65
2022/04/16 10:50:57;;;;;;;4.10;3.70;;;;;;;11.47;100.00;97268.50;5032499;27;101852;-65
2022/04/16 10:53:29;;;;;;;3.83;3.53;;;;;;;11.70;100.00;97267.63;5031195;28;105068;-65
2022/04/16 10:55:58;;;;;;;4.10;3.80;;;;;;;12.07;100.00;97269.72;5031170;28;102578;-65
2022/04/16 10:58:30;;;;;;;4.40;4.10;;;;;;;12.00;100.00;97269.03;5031089;28;101956;-65
2022/04/16 11:01:07;;;;;;;4.30;4.00;;;;;;;11.48;100.00;97277.28;5032161;27;102868;-65
2022/04/16 11:03:47;;;;;;;4.57;4.13;;;;;;;12.08;100.00;97275.84;5035159;28;102856;-65
2022/04/16 11:06:15;;;;;;;4.10;3.57;;;;;;;12.13;100.00;97273.28;5031317;28;102856;-65
2022/04/16 11:08:45;;;;;;;4.30;4.00;;;;;;;11.81;100.00;97277.47;5031939;27;103046;-65
2022/04/16 11:11:13;;;;;;;3.77;3.30;;;;;;;11.73;100.00;97278.63;5030684;28;101991;-65
2022/04/16 11:13:42;;;;;;;4.07;3.77;;;;;;;11.54;100.00;97281.66;5032471;28;102336;-65
2022/04/16 11:16:10;;;;;;;3.77;3.47;;;;;;;11.92;100.00;97285.44;5031784;27;103184;-65
2022/04/16 11:18:43;;;;;;;3.97;3.67;;;;;;;11.75;100.00;97276.56;5032052;27;101898;-65
2022/04/16 11:21:12;;;;;;;4.20;3.90;;;;;;;11.34;100.00;97276.72;5032066;28;102392;-65
2022/04/16 11:23:46;;;;;;;4.10;3.70;;;;;;;11.23;100.00;97282.06;5031663;28;103344;-65
2022/04/16 11:34:31;;;;;;;3.40;3.10;;;;;;;10.84;100.00;97283.53;5030498;27;103740;-65
2022/04/16 11:37:00;;;;;;;8.47;3.37;;;;;;;10.88;100.00;97283.88;5030940;27;102593;-65
2022/04/16 11:39:28;;;;;;;3.00;2.80;;;;;;;10.71;100.00;97288.28;5031519;27;101948;-65
2022/04/16 11:41:58;;;;;;;3.73;2.90;;;;;;;10.73;100.00;97292.31;5031952;28;102519;-65
2022/04/16 11:44:33;;;;;;;3.10;2.90;;;;;;;10.77;100.00;97287.34;5013487;28;104284;-65
2022/04/16 11:47:02;;;;;;;3.40;3.20;;;;;;;10.58;100.00;97293.81;5030271;28;101866;-65
2022/04/16 11:49:31;;;;;;;4.77;4.07;;;;;;;10.59;100.00;97287.44;5032565;28;105550;-65